createdAt,value
2022-08-16T00:03:13.211Z,92925.11
2022-08-16T00:08:30.631Z,92930.66
2022-08-16T00:13:32.657Z,92936.91
2022-08-16T00:18:42.708Z,92932.62
2022-08-16T00:23:50.400Z,92927.30
2022-08-16T00:28:59.212Z,92918.23
2022-08-16T00:34:07.266Z,92915.84
2022-08-16T00:39:17.787Z,92913.61
2022-08-16T00:44:32.629Z,92923.62
2022-08-16T00:49:39.644Z,92926.06
2022-08-16T00:54:46.854Z,92935.78
2022-08-16T00:59:59.522Z,92943.98
2022-08-16T01:05:10.738Z,92947.28
2022-08-16T01:10:16.719Z,92949.98
2022-08-16T01:15:24.346Z,92946.85
2022-08-16T01:20:34.777Z,92944.23
2022-08-16T01:26:00.208Z,92951.17
2022-08-16T01:30:59.062Z,92955.02
2022-08-16T01:36:12.369Z,92949.00
2022-08-16T01:41:23.719Z,92957.38
2022-08-16T01:46:40.022Z,92955.08
2022-08-16T01:51:49.814Z,92954.41
2022-08-16T01:56:57.972Z,92958.00
2022-08-16T02:02:27.408Z,92956.43
2022-08-16T02:07:23.730Z,92971.89
2022-08-16T02:12:50.339Z,92978.16
2022-08-16T02:17:40.526Z,92979.00
2022-08-16T02:22:48.570Z,92981.13
2022-08-16T02:27:56.636Z,92978.05
2022-08-16T02:33:05.893Z,92977.55
2022-08-16T02:38:13.389Z,92983.69
2022-08-16T02:43:21.699Z,92985.27
2022-08-16T02:48:31.372Z,93006.71
2022-08-16T02:53:43.277Z,93003.09
2022-08-16T02:58:55.145Z,92989.16
2022-08-16T03:04:39.828Z,92979.95
2022-08-16T03:09:14.795Z,92969.55
2022-08-16T03:14:24.677Z,92969.52
2022-08-16T03:19:48.134Z,92956.13
2022-08-16T03:24:44.697Z,92960.15
2022-08-16T03:29:54.807Z,92957.63
2022-08-16T03:34:59.869Z,92955.14
2022-08-16T03:40:10.291Z,92964.03
2022-08-16T03:45:18.454Z,92971.41
2022-08-16T03:50:26.988Z,92963.84
2022-08-16T03:55:45.108Z,92972.50
2022-08-16T04:00:42.621Z,92972.41
2022-08-16T04:05:54.154Z,92981.06
2022-08-16T04:11:03.605Z,92987.81
2022-08-16T04:16:27.082Z,92996.98
2022-08-16T04:21:29.190Z,93007.27
2022-08-16T04:26:32.295Z,93013.50
2022-08-16T04:31:40.235Z,93016.75
2022-08-16T04:36:49.093Z,93026.81
2022-08-16T04:41:57.808Z,93018.20
2022-08-16T04:47:21.453Z,93023.87
2022-08-16T04:52:34.816Z,93036.66
2022-08-16T04:57:23.919Z,93043.97
2022-08-16T05:02:42.182Z,93039.41
2022-08-16T05:07:59.403Z,93044.67
2022-08-16T05:12:50.929Z,93039.44
2022-08-16T05:18:00.063Z,93044.14
2022-08-16T05:23:09.803Z,93047.97
2022-08-16T05:28:19.616Z,93053.38
2022-08-16T05:33:27.314Z,93050.48
2022-08-16T05:38:38.919Z,93051.36
2022-08-16T05:43:46.741Z,93056.41
2022-08-16T05:48:55.066Z,93065.37
2022-08-16T05:54:01.150Z,93068.84
2022-08-16T05:59:09.599Z,93074.11
2022-08-16T06:04:36.350Z,93069.51
2022-08-16T06:09:42.559Z,93068.14
2022-08-16T06:14:40.002Z,93075.09
2022-08-16T06:19:46.797Z,93075.30
2022-08-16T06:24:56.214Z,93079.35
2022-08-16T06:30:03.365Z,93082.56
2022-08-16T06:35:12.330Z,93075.59
2022-08-16T06:40:20.265Z,93086.12
2022-08-16T06:45:29.334Z,93079.84
2022-08-16T06:50:36.518Z,93088.19
2022-08-16T06:55:45.779Z,93095.58
2022-08-16T07:00:54.881Z,93099.19
2022-08-16T07:06:03.475Z,93090.13
2022-08-16T07:11:11.943Z,93093.17
2022-08-16T07:16:21.625Z,93092.45
2022-08-16T07:21:42.230Z,93093.08
2022-08-16T07:26:38.630Z,93086.98
2022-08-16T07:31:45.517Z,93100.79
2022-08-16T07:36:57.829Z,93106.14
2022-08-16T07:42:00.772Z,93096.98
2022-08-16T07:47:11.252Z,93109.48
2022-08-16T07:52:20.690Z,93108.56
2022-08-16T07:57:27.736Z,93117.21
2022-08-16T08:02:37.532Z,93115.32
2022-08-16T08:07:45.353Z,93116.02
2022-08-16T08:12:55.830Z,93117.52
2022-08-16T08:18:29.714Z,93114.66
2022-08-16T08:23:19.104Z,93119.28
2022-08-16T08:28:27.555Z,93115.88
2022-08-16T08:33:36.074Z,93124.94
2022-08-16T08:38:45.883Z,93128.41
2022-08-16T08:43:53.028Z,93119.70
2022-08-16T08:49:02.107Z,93125.77
2022-08-16T08:54:10.079Z,93122.14
2022-08-16T08:59:20.515Z,93127.44
2022-08-16T09:04:26.773Z,93131.74
2022-08-16T09:09:34.203Z,93131.61
2022-08-16T09:14:49.535Z,93139.00
2022-08-16T09:19:55.231Z,93150.97
2022-08-16T09:25:11.343Z,93144.05
2022-08-16T09:30:34.612Z,93151.03
2022-08-16T09:35:18.639Z,93153.66
2022-08-16T09:40:32.352Z,93144.28
2022-08-16T09:45:36.567Z,93151.92
2022-08-16T09:50:46.982Z,93144.06
2022-08-16T09:55:56.993Z,93151.73
2022-08-16T10:01:05.005Z,93138.91
2022-08-16T10:06:12.002Z,93148.58
2022-08-16T10:11:49.915Z,93146.89
2022-08-16T10:16:48.847Z,93148.75
2022-08-16T10:21:56.079Z,93152.05
2022-08-16T10:27:21.711Z,93149.85
2022-08-16T10:32:11.839Z,93139.99
2022-08-16T10:37:32.622Z,93137.70
2022-08-16T10:42:30.567Z,93143.98
2022-08-16T10:47:40.365Z,93142.20
2022-08-16T10:52:46.311Z,93152.45
2022-08-16T10:58:01.479Z,93154.77
2022-08-16T11:08:35.140Z,93154.57
2022-08-16T11:18:54.880Z,93161.42
2022-08-16T11:23:57.860Z,93165.01
2022-08-16T11:29:17.546Z,93155.55
2022-08-16T11:34:12.317Z,93158.67
2022-08-16T11:39:21.943Z,93158.82
2022-08-16T11:44:52.976Z,93152.52
2022-08-16T11:49:39.090Z,93146.28
2022-08-16T11:54:53.788Z,93150.21
2022-08-16T11:59:57.666Z,93154.98
2022-08-16T12:05:04.599Z,93154.98
2022-08-16T12:10:18.954Z,93155.69
2022-08-16T12:15:28.841Z,93159.06
2022-08-16T12:20:41.325Z,93150.55
2022-08-16T12:25:50.951Z,93159.65
2022-08-16T12:30:59.824Z,93156.52
2022-08-16T12:36:09.835Z,93157.36
2022-08-16T12:41:25.081Z,93156.55
2022-08-16T12:46:31.180Z,93152.27
2022-08-16T12:51:58.208Z,93155.08
2022-08-16T12:56:51.615Z,93147.78
2022-08-16T13:02:00.140Z,93148.37
2022-08-16T13:07:08.830Z,93148.36
2022-08-16T13:12:21.046Z,93144.44
2022-08-16T13:17:29.897Z,93135.82
2022-08-16T13:22:50.193Z,93144.80
2022-08-16T13:28:02.792Z,93140.40
2022-08-16T13:33:10.455Z,93135.91
2022-08-16T13:38:24.266Z,93132.78
2022-08-16T13:43:33.384Z,93136.66
2022-08-16T13:48:44.214Z,93138.25
2022-08-16T13:54:02.668Z,93128.59
2022-08-16T13:59:01.671Z,93130.18
2022-08-16T14:04:10.029Z,93123.92
2022-08-16T14:09:21.160Z,93119.53
2022-08-16T14:14:30.350Z,93120.94
2022-08-16T14:19:45.083Z,93120.07
2022-08-16T14:24:54.907Z,93117.59
2022-08-16T14:30:06.374Z,93114.30
2022-08-16T14:35:18.531Z,93110.17
2022-08-16T14:40:29.036Z,93111.40
2022-08-16T14:45:37.959Z,93112.37
2022-08-16T14:50:47.233Z,93112.56
2022-08-16T14:55:56.349Z,93109.05
2022-08-16T15:01:04.450Z,93112.16
2022-08-16T15:06:13.172Z,93107.10
2022-08-16T15:11:23.194Z,93107.48
2022-08-16T15:16:29.858Z,93103.58
2022-08-16T15:21:39.535Z,93103.95
2022-08-16T15:26:47.766Z,93104.54
2022-08-16T15:32:00.939Z,93099.52
2022-08-16T15:37:05.976Z,93107.47
2022-08-16T15:42:27.203Z,93112.90
2022-08-16T15:47:27.623Z,93116.84
2022-08-16T15:52:39.199Z,93115.45
2022-08-16T15:57:46.430Z,93109.11
2022-08-16T16:03:12.567Z,93109.83
2022-08-16T16:08:24.635Z,93104.77
2022-08-16T16:13:33.766Z,93106.42
2022-08-16T16:18:40.545Z,93107.98
2022-08-16T16:23:54.773Z,93108.30
2022-08-16T16:29:07.616Z,93106.69
2022-08-16T16:34:08.232Z,93105.65
2022-08-16T16:39:18.473Z,93105.06
2022-08-16T16:44:33.472Z,93110.59
2022-08-16T16:49:33.999Z,93107.13
2022-08-16T16:54:44.071Z,93106.77
2022-08-16T16:59:55.563Z,93106.04
2022-08-16T17:05:04.413Z,93107.65
2022-08-16T17:10:14.987Z,93112.69
2022-08-16T17:15:25.511Z,93110.16
2022-08-16T17:20:33.994Z,93118.28
2022-08-16T17:25:44.639Z,93125.70
2022-08-16T17:30:53.535Z,93127.77
2022-08-16T17:36:01.377Z,93128.58
2022-08-16T17:41:10.784Z,93135.56
2022-08-16T17:46:51.579Z,93137.45
2022-08-16T17:51:30.275Z,93140.60
2022-08-16T17:56:37.535Z,93140.63
2022-08-16T18:01:44.299Z,93151.20
2022-08-16T18:06:53.674Z,93157.56
2022-08-16T18:12:01.088Z,93160.41
2022-08-16T18:17:07.915Z,93170.35
2022-08-16T18:22:19.030Z,93174.84
2022-08-16T18:27:28.639Z,93181.58
2022-08-16T18:32:35.976Z,93197.62
2022-08-16T18:37:42.784Z,93196.31
2022-08-16T18:43:03.549Z,93202.30
2022-08-16T18:48:13.259Z,93209.64
2022-08-16T18:53:25.374Z,93214.27
2022-08-16T18:58:36.070Z,93215.16
2022-08-16T19:03:45.147Z,93226.82
2022-08-16T19:08:51.956Z,93225.48
2022-08-16T19:13:59.437Z,93239.19
2022-08-16T19:19:06.540Z,93239.30
2022-08-16T19:24:18.152Z,93237.11
2022-08-16T19:29:24.452Z,93242.30
2022-08-16T19:34:33.989Z,93240.86
2022-08-16T19:39:43.608Z,93246.38
2022-08-16T19:44:55.279Z,93249.22
2022-08-16T19:50:03.136Z,93255.53
2022-08-16T19:55:20.647Z,93259.07
2022-08-16T20:00:35.230Z,93254.80
2022-08-16T20:05:36.867Z,93255.51
2022-08-16T20:10:47.746Z,93259.03
2022-08-16T20:15:54.421Z,93262.61
2022-08-16T20:21:02.165Z,93268.36
2022-08-16T20:26:20.602Z,93274.55
2022-08-16T20:31:28.887Z,93274.70
2022-08-16T20:36:35.665Z,93275.53
2022-08-16T20:41:45.417Z,93274.83
2022-08-16T20:46:52.986Z,93271.08
2022-08-16T20:51:59.996Z,93264.17
2022-08-16T20:57:10.475Z,93271.61
2022-08-16T21:02:21.774Z,93278.27
2022-08-16T21:07:29.124Z,93280.06
2022-08-16T21:12:37.953Z,93272.63
2022-08-16T21:17:46.392Z,93277.84
2022-08-16T21:23:04.491Z,93271.14
2022-08-16T21:28:40.103Z,93273.15
2022-08-16T21:33:26.625Z,93283.09
2022-08-16T21:38:36.448Z,93288.30
2022-08-16T21:43:45.616Z,93282.25
2022-08-16T21:48:55.817Z,93290.11
2022-08-16T21:54:04.921Z,93289.64
2022-08-16T21:59:15.281Z,93282.69
2022-08-16T22:04:36.532Z,93286.07
2022-08-16T22:09:32.854Z,93288.45
2022-08-16T22:14:40.010Z,93296.41
2022-08-16T22:19:46.796Z,93296.62
2022-08-16T22:24:55.468Z,93297.29
2022-08-16T22:30:03.083Z,93291.45
2022-08-16T22:35:16.847Z,93289.59
2022-08-16T22:40:27.501Z,93296.54
2022-08-16T22:45:37.089Z,93285.09
2022-08-16T22:50:47.515Z,93294.09
2022-08-16T22:55:59.421Z,93296.13
2022-08-16T23:01:11.429Z,93294.20
2022-08-16T23:06:19.975Z,93286.78
2022-08-16T23:11:28.080Z,93288.37
2022-08-16T23:16:38.411Z,93276.36
2022-08-16T23:21:49.872Z,93280.84
2022-08-16T23:26:58.254Z,93278.05
2022-08-16T23:32:13.578Z,93267.94
2022-08-16T23:37:22.622Z,93258.95
2022-08-16T23:42:52.582Z,93251.56
2022-08-16T23:47:41.531Z,93262.33
2022-08-16T23:53:18.459Z,93263.81
2022-08-16T23:58:32.690Z,93257.36
